Terminal Aerodrome Forecast
Issued by NWS Paducah, KY

Home | Current Version | Previous Version | Text Only | Print | Product List | Glossary On
Versions: 1 2 3 4 5 6 7 8 9 10 11 12 13 14 15 16 17 18
374
FTUS43 KPAH 201733
TAFEVV
TAF
KEVV 201733Z 2018/2118 20008KT P6SM SCT015 OVC028
     FM202300 15005KT P6SM BKN035
     FM210200 19007KT P6SM BKN035
     FM210700 19005KT P6SM BKN250
     FM211500 19011G17KT P6SM SCT025=

USA.gov is the U.S. government's official web portal to all federal, state and local government web resources and services.